sensor_id;sensor_type;location;lat;lon;timestamp;P1;durP1;ratioP1;P2;durP2;ratioP2
29414;SDS011;20303;48.302;11.914;2023-04-03T00:05:23;5.03;;;2.40;;
29414;SDS011;20303;48.302;11.914;2023-04-03T00:15:25;4.57;;;2.35;;
29414;SDS011;20303;48.302;11.914;2023-04-03T00:25:26;3.53;;;2.20;;
29414;SDS011;20303;48.302;11.914;2023-04-03T00:35:27;3.60;;;2.30;;
29414;SDS011;20303;48.302;11.914;2023-04-03T00:45:31;2.95;;;2.00;;
29414;SDS011;20303;48.302;11.914;2023-04-03T00:55:34;3.88;;;2.28;;
29414;SDS011;20303;48.302;11.914;2023-04-03T01:05:36;3.92;;;2.10;;
29414;SDS011;20303;48.302;11.914;2023-04-03T01:15:37;4.35;;;2.20;;
29414;SDS011;20303;48.302;11.914;2023-04-03T01:35:46;4.47;;;2.28;;
29414;SDS011;20303;48.302;11.914;2023-04-03T01:45:47;3.58;;;2.05;;
29414;SDS011;20303;48.302;11.914;2023-04-03T01:55:49;3.80;;;2.50;;
29414;SDS011;20303;48.302;11.914;2023-04-03T02:05:51;3.40;;;1.83;;
29414;SDS011;20303;48.302;11.914;2023-04-03T02:15:52;4.50;;;2.08;;
29414;SDS011;20303;48.302;11.914;2023-04-03T02:25:53;3.15;;;1.90;;
29414;SDS011;20303;48.302;11.914;2023-04-03T02:36:02;2.20;;;1.80;;
29414;SDS011;20303;48.302;11.914;2023-04-03T02:46:05;3.13;;;2.00;;
29414;SDS011;20303;48.302;11.914;2023-04-03T02:56:06;3.55;;;2.10;;
29414;SDS011;20303;48.302;11.914;2023-04-03T03:06:08;2.92;;;1.75;;
29414;SDS011;20303;48.302;11.914;2023-04-03T03:16:10;2.13;;;1.90;;
29414;SDS011;20303;48.302;11.914;2023-04-03T03:26:12;2.95;;;1.98;;
29414;SDS011;20303;48.302;11.914;2023-04-03T03:36:13;2.42;;;1.92;;
29414;SDS011;20303;48.302;11.914;2023-04-03T03:46:14;2.22;;;1.75;;
29414;SDS011;20303;48.302;11.914;2023-04-03T03:56:15;2.95;;;1.90;;
29414;SDS011;20303;48.302;11.914;2023-04-03T04:06:16;3.78;;;1.80;;
29414;SDS011;20303;48.302;11.914;2023-04-03T04:16:17;1.80;;;1.50;;
29414;SDS011;20303;48.302;11.914;2023-04-03T04:26:18;2.63;;;1.80;;
29414;SDS011;20303;48.302;11.914;2023-04-03T04:36:20;2.60;;;1.70;;
29414;SDS011;20303;48.302;11.914;2023-04-03T04:46:21;2.58;;;1.73;;
29414;SDS011;20303;48.302;11.914;2023-04-03T04:56:22;2.50;;;1.70;;
29414;SDS011;20303;48.302;11.914;2023-04-03T05:06:23;3.25;;;1.90;;
29414;SDS011;20303;48.302;11.914;2023-04-03T05:26:25;2.03;;;1.50;;
29414;SDS011;20303;48.302;11.914;2023-04-03T05:36:26;2.30;;;1.67;;
29414;SDS011;20303;48.302;11.914;2023-04-03T05:46:27;1.83;;;1.60;;
29414;SDS011;20303;48.302;11.914;2023-04-03T05:56:29;2.45;;;1.60;;
29414;SDS011;20303;48.302;11.914;2023-04-03T06:16:43;3.60;;;1.67;;
29414;SDS011;20303;48.302;11.914;2023-04-03T06:26:44;2.00;;;1.50;;
29414;SDS011;20303;48.302;11.914;2023-04-03T06:36:46;3.88;;;1.80;;
29414;SDS011;20303;48.302;11.914;2023-04-03T06:46:47;3.20;;;1.95;;
29414;SDS011;20303;48.302;11.914;2023-04-03T06:56:48;3.28;;;1.92;;
29414;SDS011;20303;48.302;11.914;2023-04-03T07:06:50;2.53;;;1.65;;
29414;SDS011;20303;48.302;11.914;2023-04-03T07:16:52;2.38;;;1.80;;
29414;SDS011;20303;48.302;11.914;2023-04-03T07:26:53;2.75;;;1.73;;
29414;SDS011;20303;48.302;11.914;2023-04-03T07:36:54;2.88;;;1.88;;
29414;SDS011;20303;48.302;11.914;2023-04-03T07:46:56;2.65;;;1.80;;
29414;SDS011;20303;48.302;11.914;2023-04-03T07:56:57;3.83;;;2.00;;
29414;SDS011;20303;48.302;11.914;2023-04-03T08:06:58;3.15;;;1.77;;
29414;SDS011;20303;48.302;11.914;2023-04-03T08:17:00;2.53;;;1.70;;
29414;SDS011;20303;48.302;11.914;2023-04-03T08:27:02;2.60;;;1.90;;
29414;SDS011;20303;48.302;11.914;2023-04-03T08:37:03;2.70;;;1.80;;
29414;SDS011;20303;48.302;11.914;2023-04-03T08:57:20;2.60;;;1.70;;
29414;SDS011;20303;48.302;11.914;2023-04-03T09:07:33;3.17;;;1.70;;
29414;SDS011;20303;48.302;11.914;2023-04-03T09:28:04;2.90;;;2.00;;
29414;SDS011;20303;48.302;11.914;2023-04-03T09:58:28;2.95;;;1.83;;
29414;SDS011;20303;48.302;11.914;2023-04-03T10:08:40;4.00;;;1.80;;
29414;SDS011;20303;48.302;11.914;2023-04-03T10:18:49;3.72;;;1.80;;
29414;SDS011;20303;48.302;11.914;2023-04-03T10:39:22;2.80;;;1.70;;
29414;SDS011;20303;48.302;11.914;2023-04-03T10:49:41;2.20;;;1.60;;
29414;SDS011;20303;48.302;11.914;2023-04-03T11:00:03;2.20;;;1.60;;
29414;SDS011;20303;48.302;11.914;2023-04-03T11:10:10;1.90;;;1.70;;
29414;SDS011;20303;48.302;11.914;2023-04-03T11:20:20;2.22;;;1.63;;
29414;SDS011;20303;48.302;11.914;2023-04-03T11:30:28;2.50;;;1.60;;
29414;SDS011;20303;48.302;11.914;2023-04-03T11:40:40;6.93;;;2.10;;
29414;SDS011;20303;48.302;11.914;2023-04-03T11:50:42;5.63;;;2.00;;
29414;SDS011;20303;48.302;11.914;2023-04-03T12:31:35;5.85;;;2.28;;
29414;SDS011;20303;48.302;11.914;2023-04-03T12:41:44;7.47;;;2.85;;
29414;SDS011;20303;48.302;11.914;2023-04-03T12:51:51;6.87;;;2.30;;
29414;SDS011;20303;48.302;11.914;2023-04-03T13:01:57;5.47;;;2.00;;
29414;SDS011;20303;48.302;11.914;2023-04-03T13:12:01;5.40;;;2.08;;
29414;SDS011;20303;48.302;11.914;2023-04-03T13:22:10;9.63;;;2.40;;
29414;SDS011;20303;48.302;11.914;2023-04-03T13:32:24;5.53;;;2.50;;
29414;SDS011;20303;48.302;11.914;2023-04-03T13:42:31;7.72;;;2.55;;
29414;SDS011;20303;48.302;11.914;2023-04-03T13:52:38;7.53;;;2.85;;
29414;SDS011;20303;48.302;11.914;2023-04-03T14:02:48;5.72;;;2.60;;
29414;SDS011;20303;48.302;11.914;2023-04-03T14:12:49;6.90;;;2.70;;
29414;SDS011;20303;48.302;11.914;2023-04-03T14:22:51;5.72;;;2.80;;
29414;SDS011;20303;48.302;11.914;2023-04-03T14:32:53;6.35;;;2.50;;
29414;SDS011;20303;48.302;11.914;2023-04-03T14:42:55;5.63;;;2.40;;
29414;SDS011;20303;48.302;11.914;2023-04-03T14:52:58;4.35;;;2.28;;
29414;SDS011;20303;48.302;11.914;2023-04-03T15:02:59;5.55;;;2.50;;
29414;SDS011;20303;48.302;11.914;2023-04-03T15:13:00;6.60;;;2.28;;
29414;SDS011;20303;48.302;11.914;2023-04-03T15:23:02;7.47;;;2.30;;
29414;SDS011;20303;48.302;11.914;2023-04-03T15:33:04;7.90;;;2.42;;
29414;SDS011;20303;48.302;11.914;2023-04-03T15:43:05;6.90;;;2.70;;
29414;SDS011;20303;48.302;11.914;2023-04-03T15:53:07;7.88;;;2.20;;
29414;SDS011;20303;48.302;11.914;2023-04-03T16:03:09;6.95;;;2.60;;
29414;SDS011;20303;48.302;11.914;2023-04-03T16:13:12;8.35;;;2.33;;
29414;SDS011;20303;48.302;11.914;2023-04-03T16:23:14;5.95;;;2.33;;
29414;SDS011;20303;48.302;11.914;2023-04-03T16:33:15;5.70;;;2.60;;
29414;SDS011;20303;48.302;11.914;2023-04-03T16:43:16;6.32;;;2.42;;
29414;SDS011;20303;48.302;11.914;2023-04-03T16:53:17;5.75;;;2.15;;
29414;SDS011;20303;48.302;11.914;2023-04-03T17:03:21;5.30;;;1.85;;
29414;SDS011;20303;48.302;11.914;2023-04-03T17:13:25;4.30;;;2.17;;
29414;SDS011;20303;48.302;11.914;2023-04-03T17:23:31;5.15;;;1.95;;
29414;SDS011;20303;48.302;11.914;2023-04-03T17:33:34;4.90;;;2.30;;
29414;SDS011;20303;48.302;11.914;2023-04-03T17:43:35;5.30;;;2.25;;
29414;SDS011;20303;48.302;11.914;2023-04-03T17:53:36;5.07;;;2.00;;
29414;SDS011;20303;48.302;11.914;2023-04-03T18:03:37;6.57;;;2.20;;
29414;SDS011;20303;48.302;11.914;2023-04-03T18:13:39;4.35;;;2.20;;
29414;SDS011;20303;48.302;11.914;2023-04-03T18:23:42;4.32;;;1.85;;
29414;SDS011;20303;48.302;11.914;2023-04-03T18:33:46;5.75;;;2.13;;
29414;SDS011;20303;48.302;11.914;2023-04-03T18:43:47;4.05;;;1.88;;
29414;SDS011;20303;48.302;11.914;2023-04-03T18:53:48;4.97;;;2.00;;
29414;SDS011;20303;48.302;11.914;2023-04-03T19:03:49;5.20;;;2.10;;
29414;SDS011;20303;48.302;11.914;2023-04-03T19:13:50;5.50;;;2.28;;
29414;SDS011;20303;48.302;11.914;2023-04-03T19:23:51;4.05;;;1.83;;
29414;SDS011;20303;48.302;11.914;2023-04-03T19:33:54;2.97;;;1.95;;
29414;SDS011;20303;48.302;11.914;2023-04-03T19:43:56;4.03;;;1.90;;
29414;SDS011;20303;48.302;11.914;2023-04-03T19:53:57;4.60;;;2.22;;
29414;SDS011;20303;48.302;11.914;2023-04-03T20:03:58;2.63;;;1.77;;
29414;SDS011;20303;48.302;11.914;2023-04-03T20:13:59;4.55;;;2.15;;
29414;SDS011;20303;48.302;11.914;2023-04-03T20:24:01;4.88;;;2.10;;
29414;SDS011;20303;48.302;11.914;2023-04-03T20:34:03;7.70;;;2.30;;
29414;SDS011;20303;48.302;11.914;2023-04-03T20:44:04;3.72;;;1.92;;
29414;SDS011;20303;48.302;11.914;2023-04-03T20:54:05;4.07;;;2.40;;
29414;SDS011;20303;48.302;11.914;2023-04-03T21:04:09;4.60;;;2.10;;
29414;SDS011;20303;48.302;11.914;2023-04-03T21:24:53;5.15;;;1.90;;
29414;SDS011;20303;48.302;11.914;2023-04-03T21:34:55;4.28;;;2.20;;
29414;SDS011;20303;48.302;11.914;2023-04-03T21:44:57;3.28;;;2.20;;
29414;SDS011;20303;48.302;11.914;2023-04-03T21:54:58;2.28;;;1.90;;
29414;SDS011;20303;48.302;11.914;2023-04-03T22:15:00;3.35;;;2.08;;
29414;SDS011;20303;48.302;11.914;2023-04-03T22:25:02;3.03;;;2.08;;
29414;SDS011;20303;48.302;11.914;2023-04-03T22:35:03;4.38;;;2.10;;
29414;SDS011;20303;48.302;11.914;2023-04-03T22:45:05;3.13;;;2.08;;
29414;SDS011;20303;48.302;11.914;2023-04-03T22:55:06;2.10;;;1.83;;
29414;SDS011;20303;48.302;11.914;2023-04-03T23:05:08;3.10;;;1.88;;
29414;SDS011;20303;48.302;11.914;2023-04-03T23:15:09;2.28;;;1.98;;
29414;SDS011;20303;48.302;11.914;2023-04-03T23:25:10;3.00;;;2.13;;
29414;SDS011;20303;48.302;11.914;2023-04-03T23:35:11;2.28;;;1.77;;
29414;SDS011;20303;48.302;11.914;2023-04-03T23:45:12;2.10;;;1.70;;
29414;SDS011;20303;48.302;11.914;2023-04-03T23:55:14;2.42;;;1.85;;
